Time;durP1;ratioP1;P1;durP2;ratioP2;P2;SDS_P1;SDS_P2;PMS_P1;PMS_P2;Temp;Humidity;BMP_temperature;BMP_pressure;BME280_temperature;BME280_humidity;BME280_pressure;Samples;Min_cycle;Max_cycle;Signal;HPM_P1;HPM_P2
2022/08/17 00:02:56;;;;;;;7.10;4.50;;;;;;;;;;10588962;27;20047;-74
2022/08/17 00:08:01;;;;;;;7.45;4.50;;;;;;;;;;10585489;27;20689;-73
2022/08/17 00:13:28;;;;;;;8.07;4.55;;;;;;;;;;10577255;28;20088;-72
2022/08/17 00:18:32;;;;;;;16.35;5.20;;;;;;;;;;10586273;28;20038;-73
2022/08/17 00:23:56;;;;;;;8.45;4.78;;;;;;;;;;10592631;27;20093;-72
2022/08/17 00:29:00;;;;;;;8.05;4.57;;;;;;;;;;10602845;27;20031;-73
2022/08/17 00:34:03;;;;;;;9.93;4.63;;;;;;;;;;10594886;27;20043;-72
2022/08/17 00:39:11;;;;;;;7.95;4.70;;;;;;;;;;10599838;27;20062;-73
2022/08/17 00:44:15;;;;;;;9.68;4.57;;;;;;;;;;10596320;27;20047;-73
2022/08/17 00:49:22;;;;;;;7.13;4.88;;;;;;;;;;10587630;27;20028;-73
2022/08/17 00:54:29;;;;;;;7.25;4.45;;;;;;;;;;10594098;27;20063;-73
2022/08/17 00:59:34;;;;;;;7.13;4.55;;;;;;;;;;10595837;27;20063;-74
2022/08/17 01:04:38;;;;;;;7.65;4.68;;;;;;;;;;10596542;27;20034;-73
2022/08/17 01:09:43;;;;;;;9.45;4.75;;;;;;;;;;10595104;27;20020;-73
2022/08/17 01:15:07;;;;;;;11.18;4.80;;;;;;;;;;10595656;27;20039;-73
2022/08/17 01:20:30;;;;;;;7.63;4.20;;;;;;;;;;10595026;27;20066;-73
2022/08/17 01:26:00;;;;;;;10.35;5.00;;;;;;;;;;10587287;27;20035;-73
2022/08/17 01:31:06;;;;;;;7.47;4.25;;;;;;;;;;10589626;27;20031;-73
2022/08/17 01:36:26;;;;;;;8.55;3.95;;;;;;;;;;10587237;28;20063;-73
2022/08/17 01:41:48;;;;;;;7.18;4.70;;;;;;;;;;10582613;28;20088;-73
2022/08/17 01:47:11;;;;;;;8.75;5.20;;;;;;;;;;10590479;28;20456;-72
2022/08/17 01:52:15;;;;;;;8.95;4.72;;;;;;;;;;10593991;27;20031;-72
2022/08/17 01:57:18;;;;;;;;;;;;;;;;;;10595022;27;20039;-73
2022/08/17 02:02:24;;;;;;;6.70;4.32;;;;;;;;;;10594262;27;19930;-72
2022/08/17 02:07:35;;;;;;;6.78;4.28;;;;;;;;;;10589155;27;20055;-73
2022/08/17 02:12:58;;;;;;;6.93;4.57;;;;;;;;;;10587708;27;20120;-73
2022/08/17 02:18:02;;;;;;;7.97;4.90;;;;;;;;;;10588045;27;20035;-73
2022/08/17 02:23:08;;;;;;;9.70;5.03;;;;;;;;;;10591925;27;20059;-72
2022/08/17 02:28:11;;;;;;;8.88;4.70;;;;;;;;;;10596740;27;20084;-73
2022/08/17 02:33:15;;;;;;;7.30;3.97;;;;;;;;;;10586747;27;20058;-74
2022/08/17 02:38:21;;;;;;;8.85;4.68;;;;;;;;;;10589614;27;20109;-73
2022/08/17 02:43:25;;;;;;;6.82;4.47;;;;;;;;;;10595950;27;20359;-73
2022/08/17 02:48:31;;;;;;;7.38;4.57;;;;;;;;;;10598676;27;20036;-73
2022/08/17 02:53:34;;;;;;;7.95;4.40;;;;;;;;;;10590539;28;20042;-73
2022/08/17 02:58:38;;;;;;;6.25;4.38;;;;;;;;;;10579606;27;20099;-73
2022/08/17 03:03:43;;;;;;;6.95;4.40;;;;;;;;;;10586497;27;20031;-74
2022/08/17 03:08:47;;;;;;;7.15;4.07;;;;;;;;;;10586021;27;20038;-73
2022/08/17 03:13:50;;;;;;;7.50;3.92;;;;;;;;;;10588927;28;20039;-73
2022/08/17 03:18:54;;;;;;;8.48;4.78;;;;;;;;;;10592300;27;20066;-74
2022/08/17 03:23:57;;;;;;;8.10;4.57;;;;;;;;;;10586225;27;20047;-73
2022/08/17 03:29:01;;;;;;;7.18;4.25;;;;;;;;;;10588084;27;20037;-74
2022/08/17 03:34:05;;;;;;;4.57;2.65;;;;;;;;;;10591629;27;20027;-71
2022/08/17 03:39:08;;;;;;;6.32;3.22;;;;;;;;;;10589166;28;20499;-72
2022/08/17 03:44:11;;;;;;;8.60;5.22;;;;;;;;;;10590237;27;20104;-73
2022/08/17 03:59:57;;;;;;;6.78;4.10;;;;;;;;;;10584465;28;20035;-73
2022/08/17 04:05:01;;;;;;;6.85;4.00;;;;;;;;;;10582531;28;20069;-73
2022/08/17 04:10:05;;;;;;;6.32;3.95;;;;;;;;;;10589904;28;20115;-73
2022/08/17 04:15:08;;;;;;;6.78;4.20;;;;;;;;;;10591431;28;20114;-73
2022/08/17 04:20:13;;;;;;;8.48;4.05;;;;;;;;;;10590234;28;20503;-73
2022/08/17 04:25:18;;;;;;;4.55;3.00;;;;;;;;;;10577750;28;20462;-72
2022/08/17 04:30:21;;;;;;;4.05;2.47;;;;;;;;;;10586931;28;20565;-73
2022/08/17 04:35:24;;;;;;;;;;;;;;;;;;10589581;28;20134;-72
2022/08/17 04:45:52;;;;;;;8.68;4.22;;;;;;;;;;10557512;28;20435;-73
2022/08/17 04:50:59;;;;;;;8.35;4.20;;;;;;;;;;10578863;28;20077;-73
2022/08/17 04:56:03;;;;;;;6.95;3.80;;;;;;;;;;10585155;28;20411;-73
2022/08/17 05:01:07;;;;;;;4.97;2.85;;;;;;;;;;10585552;28;20084;-73
2022/08/17 05:06:10;;;;;;;5.63;3.22;;;;;;;;;;10584902;28;20044;-73
2022/08/17 05:11:14;;;;;;;5.57;2.47;;;;;;;;;;10593560;27;20327;-72
2022/08/17 05:16:17;;;;;;;5.07;2.78;;;;;;;;;;10606779;27;20046;-72
2022/08/17 05:21:23;;;;;;;11.07;3.58;;;;;;;;;;10592139;27;20082;-72
2022/08/17 05:26:27;;;;;;;4.10;2.40;;;;;;;;;;10578634;27;20036;-72
2022/08/17 05:31:31;;;;;;;4.22;2.40;;;;;;;;;;10592685;27;20449;-73
2022/08/17 05:36:34;;;;;;;4.13;2.67;;;;;;;;;;10586758;27;20067;-73
2022/08/17 05:41:47;;;;;;;10.38;4.00;;;;;;;;;;10602493;27;20040;-72
2022/08/17 05:46:53;;;;;;;6.45;3.55;;;;;;;;;;10580244;27;20287;-72
2022/08/17 05:52:03;;;;;;;6.28;3.42;;;;;;;;;;10584823;27;20133;-72
2022/08/17 05:57:24;;;;;;;4.78;2.92;;;;;;;;;;10588281;27;20036;-71
2022/08/17 06:02:41;;;;;;;12.75;3.92;;;;;;;;;;10571236;27;20097;-72
2022/08/17 06:07:52;;;;;;;6.90;3.80;;;;;;;;;;10583402;28;20043;-72
2022/08/17 06:13:03;;;;;;;7.65;3.97;;;;;;;;;;10586054;27;20044;-73
2022/08/17 06:18:09;;;;;;;6.60;3.90;;;;;;;;;;10585458;27;20062;-70
2022/08/17 06:23:14;;;;;;;8.98;3.78;;;;;;;;;;10587673;28;20031;-71
2022/08/17 06:28:21;;;;;;;5.72;3.75;;;;;;;;;;10592106;28;20032;-72
2022/08/17 06:33:28;;;;;;;20.88;11.68;;;;;;;;;;10594428;27;20036;-72
2022/08/17 06:38:37;;;;;;;10.18;4.28;;;;;;;;;;10575729;28;20093;-72
2022/08/17 06:43:45;;;;;;;10.27;3.75;;;;;;;;;;10590004;27;20043;-71
2022/08/17 06:48:56;;;;;;;8.07;3.90;;;;;;;;;;10584667;27;20036;-73
2022/08/17 06:54:04;;;;;;;9.68;4.75;;;;;;;;;;10581668;27;21975;-72
2022/08/17 06:59:09;;;;;;;10.15;5.15;;;;;;;;;;10605882;27;20070;-72
2022/08/17 07:04:15;;;;;;;9.95;4.43;;;;;;;;;;10591519;27;20046;-71
2022/08/17 07:09:22;;;;;;;7.68;3.97;;;;;;;;;;10579532;27;20032;-72
2022/08/17 07:14:35;;;;;;;9.93;4.10;;;;;;;;;;10588495;27;20048;-72
2022/08/17 07:19:39;;;;;;;;;;;;;;;;;;10591641;27;20527;-71
2022/08/17 07:24:46;;;;;;;7.35;3.95;;;;;;;;;;10602287;27;19953;-71
2022/08/17 07:29:53;;;;;;;14.48;4.30;;;;;;;;;;10586610;27;20084;-71
2022/08/17 07:35:01;;;;;;;7.30;4.57;;;;;;;;;;10578668;28;20036;-72
2022/08/17 07:40:20;;;;;;;6.90;4.45;;;;;;;;;;10600987;27;20067;-72
2022/08/17 07:50:39;;;;;;;8.27;4.55;;;;;;;;;;10566684;27;20063;-73
2022/08/17 07:55:44;;;;;;;11.05;5.10;;;;;;;;;;10585802;27;20047;-72
2022/08/17 08:01:03;;;;;;;9.80;5.00;;;;;;;;;;10586333;28;20032;-73
2022/08/17 08:06:19;;;;;;;7.05;4.63;;;;;;;;;;10586607;27;20080;-73
2022/08/17 08:11:30;;;;;;;10.25;4.55;;;;;;;;;;10580993;27;20039;-72
2022/08/17 08:16:35;;;;;;;8.98;4.85;;;;;;;;;;10585189;28;20040;-72
2022/08/17 08:21:43;;;;;;;8.80;4.70;;;;;;;;;;10583808;28;20032;-72
2022/08/17 08:26:54;;;;;;;6.95;4.68;;;;;;;;;;10584962;28;20043;-72
2022/08/17 08:32:02;;;;;;;6.65;4.50;;;;;;;;;;10574788;28;20043;-72
2022/08/17 08:37:12;;;;;;;9.32;4.60;;;;;;;;;;10580037;28;20039;-72
2022/08/17 08:42:31;;;;;;;6.47;4.93;;;;;;;;;;10576324;28;20040;-73
2022/08/17 08:47:51;;;;;;;7.18;5.43;;;;;;;;;;10585224;27;20062;-73
2022/08/17 08:53:10;;;;;;;7.32;4.93;;;;;;;;;;10589275;28;20047;-72
2022/08/17 08:58:16;;;;;;;5.87;4.63;;;;;;;;;;10584967;27;20134;-72
2022/08/17 09:04:01;;;;;;;7.47;4.50;;;;;;;;;;10603720;27;20036;-72
2022/08/17 09:09:29;;;;;;;7.32;4.68;;;;;;;;;;10568736;27;20128;-73
2022/08/17 09:14:36;;;;;;;10.30;5.30;;;;;;;;;;10600042;27;20043;-72
2022/08/17 09:19:54;;;;;;;7.80;5.10;;;;;;;;;;10594959;27;20096;-71
2022/08/17 09:25:02;;;;;;;5.77;4.57;;;;;;;;;;10588049;27;20048;-72
2022/08/17 09:30:09;;;;;;;6.05;4.15;;;;;;;;;;10596797;27;20032;-72
2022/08/17 09:35:16;;;;;;;7.63;4.40;;;;;;;;;;10594735;27;20047;-72
2022/08/17 09:40:22;;;;;;;7.85;5.53;;;;;;;;;;10593886;27;20027;-72
2022/08/17 09:45:30;;;;;;;8.13;4.88;;;;;;;;;;10590702;27;20054;-71
2022/08/17 09:50:36;;;;;;;5.55;4.18;;;;;;;;;;10588317;27;20044;-70
2022/08/17 09:56:09;;;;;;;10.30;5.70;;;;;;;;;;10584695;28;20074;-72
2022/08/17 10:01:19;;;;;;;6.05;4.68;;;;;;;;;;10589954;27;20027;-72
2022/08/17 10:06:24;;;;;;;14.90;12.98;;;;;;;;;;10595870;27;20114;-71
2022/08/17 10:17:03;;;;;;;7.35;4.85;;;;;;;;;;10591374;27;20516;-71
2022/08/17 10:27:42;;;;;;;7.00;4.88;;;;;;;;;;10585529;27;20081;-71
2022/08/17 10:32:48;;;;;;;6.63;4.80;;;;;;;;;;10589270;27;20039;-72
2022/08/17 10:38:06;;;;;;;4.82;4.35;;;;;;;;;;10586388;27;20055;-72
2022/08/17 10:43:17;;;;;;;7.30;4.63;;;;;;;;;;10564728;27;20067;-72
2022/08/17 10:48:30;;;;;;;7.53;4.35;;;;;;;;;;10603623;27;20352;-72
2022/08/17 10:53:49;;;;;;;6.75;3.63;;;;;;;;;;10593814;27;20050;-72
2022/08/17 10:58:53;;;;;;;9.45;4.88;;;;;;;;;;10589953;27;20507;-72
2022/08/17 11:04:00;;;;;;;5.95;4.57;;;;;;;;;;10580123;27;20127;-72
2022/08/17 11:09:08;;;;;;;6.28;4.55;;;;;;;;;;10587925;28;20050;-72
2022/08/17 11:14:22;;;;;;;6.90;5.22;;;;;;;;;;10587138;28;20052;-71
2022/08/17 11:19:37;;;;;;;5.28;4.78;;;;;;;;;;10590198;27;20100;-70
2022/08/17 11:24:41;;;;;;;6.32;4.70;;;;;;;;;;10580282;27;20035;-70
2022/08/17 11:29:49;;;;;;;10.98;4.43;;;;;;;;;;10587470;27;20048;-72
2022/08/17 11:35:07;;;;;;;7.78;4.38;;;;;;;;;;10590752;27;20334;-72
2022/08/17 11:40:17;;;;;;;5.32;4.80;;;;;;;;;;10595149;27;20032;-72
2022/08/17 11:45:32;;;;;;;4.78;4.25;;;;;;;;;;10580224;28;20134;-72
2022/08/17 11:56:08;;;;;;;7.43;4.57;;;;;;;;;;10582388;28;20043;-73
2022/08/17 12:01:11;;;;;;;5.05;4.15;;;;;;;;;;10582002;28;20039;-72
2022/08/17 12:06:26;;;;;;;8.02;5.85;;;;;;;;;;10580027;28;20044;-72
2022/08/17 12:11:37;;;;;;;7.70;4.53;;;;;;;;;;10574637;28;20036;-72
2022/08/17 12:17:02;;;;;;;5.43;4.30;;;;;;;;;;10598460;27;20040;-72
2022/08/17 12:22:12;;;;;;;6.43;5.03;;;;;;;;;;10577267;28;20036;-72
2022/08/17 12:27:20;;;;;;;6.65;4.80;;;;;;;;;;10586589;28;20381;-72
2022/08/17 12:32:46;;;;;;;7.07;4.57;;;;;;;;;;10585513;28;20066;-72
2022/08/17 12:37:51;;;;;;;6.70;4.00;;;;;;;;;;10584305;28;20069;-73
2022/08/17 12:42:55;;;;;;;5.20;4.10;;;;;;;;;;10577326;28;20032;-72
2022/08/17 12:48:05;;;;;;;7.82;4.07;;;;;;;;;;10580278;28;20061;-72
2022/08/17 12:53:12;;;;;;;6.10;4.05;;;;;;;;;;10583256;28;20218;-72
2022/08/17 12:58:18;;;;;;;6.45;4.38;;;;;;;;;;10585658;28;20061;-71
2022/08/17 13:03:23;;;;;;;5.55;3.97;;;;;;;;;;10588027;28;20036;-72
2022/08/17 13:08:34;;;;;;;5.38;3.80;;;;;;;;;;10566863;28;20039;-72
2022/08/17 13:13:38;;;;;;;5.75;3.70;;;;;;;;;;10585112;28;20035;-72
2022/08/17 13:18:42;;;;;;;5.07;3.80;;;;;;;;;;10582071;28;20040;-73
2022/08/17 13:23:55;;;;;;;6.22;4.00;;;;;;;;;;10584443;28;20042;-73
2022/08/17 13:28:59;;;;;;;5.95;3.63;;;;;;;;;;10583624;28;20048;-72
2022/08/17 13:34:19;;;;;;;4.63;3.50;;;;;;;;;;10584422;27;20031;-72
2022/08/17 13:39:26;;;;;;;7.15;3.60;;;;;;;;;;10593659;27;20679;-72
2022/08/17 13:44:35;;;;;;;5.22;3.35;;;;;;;;;;10588089;27;20040;-71
2022/08/17 13:49:39;;;;;;;3.90;3.50;;;;;;;;;;10593867;27;20504;-72
2022/08/17 13:54:52;;;;;;;4.97;3.25;;;;;;;;;;10587984;27;20066;-72
2022/08/17 14:00:06;;;;;;;6.53;3.92;;;;;;;;;;10587974;27;20063;-71
2022/08/17 14:05:10;;;;;;;6.10;3.50;;;;;;;;;;10588667;27;20024;-72
2022/08/17 14:10:16;;;;;;;9.45;4.80;;;;;;;;;;10590795;27;20284;-71
2022/08/17 14:15:21;;;;;;;5.03;3.35;;;;;;;;;;10591560;27;20645;-73
2022/08/17 14:20:24;;;;;;;6.55;3.63;;;;;;;;;;10589758;27;20047;-71
2022/08/17 14:25:29;;;;;;;7.07;3.50;;;;;;;;;;10603504;27;20032;-72
2022/08/17 14:30:34;;;;;;;5.18;3.30;;;;;;;;;;10585232;27;20083;-73
2022/08/17 14:35:37;;;;;;;12.63;3.50;;;;;;;;;;10590416;27;20051;-72
2022/08/17 14:40:42;;;;;;;7.55;3.25;;;;;;;;;;10583995;27;20069;-72
2022/08/17 14:45:45;;;;;;;7.80;3.03;;;;;;;;;;10585178;27;20035;-72
2022/08/17 14:50:52;;;;;;;5.28;2.70;;;;;;;;;;10594762;27;20927;-72
2022/08/17 14:55:56;;;;;;;3.95;3.20;;;;;;;;;;10593984;27;20031;-71
2022/08/17 15:01:01;;;;;;;7.13;4.18;;;;;;;;;;10587820;28;20115;-72
2022/08/17 15:06:04;;;;;;;5.38;2.80;;;;;;;;;;10586279;27;20063;-72
2022/08/17 15:11:09;;;;;;;4.78;3.00;;;;;;;;;;10585500;27;20039;-72
2022/08/17 15:16:15;;;;;;;7.82;4.13;;;;;;;;;;10585185;27;20038;-71
2022/08/17 15:21:18;;;;;;;4.03;2.83;;;;;;;;;;10586876;27;20069;-72
2022/08/17 15:26:23;;;;;;;4.65;3.28;;;;;;;;;;10580316;27;20131;-72
2022/08/17 15:31:28;;;;;;;5.35;3.70;;;;;;;;;;10575167;28;20115;-71
2022/08/17 15:36:34;;;;;;;6.13;3.17;;;;;;;;;;10587994;27;20035;-72
2022/08/17 15:41:38;;;;;;;5.57;3.67;;;;;;;;;;10589650;27;20092;-72
2022/08/17 15:46:41;;;;;;;7.00;3.22;;;;;;;;;;10583555;27;20051;-72
2022/08/17 15:51:46;;;;;;;6.10;3.17;;;;;;;;;;10584528;27;20039;-74
2022/08/17 15:56:50;;;;;;;6.68;4.20;;;;;;;;;;10585368;27;20077;-73
2022/08/17 16:01:53;;;;;;;7.65;4.38;;;;;;;;;;10581275;27;20047;-72
2022/08/17 16:07:17;;;;;;;3.72;2.97;;;;;;;;;;10596580;27;20044;-72
2022/08/17 16:12:25;;;;;;;5.00;3.00;;;;;;;;;;10578746;27;20052;-73
2022/08/17 16:17:28;;;;;;;5.75;2.97;;;;;;;;;;10584305;28;20075;-72
2022/08/17 16:22:44;;;;;;;5.40;3.53;;;;;;;;;;10587542;28;20179;-72
2022/08/17 16:27:52;;;;;;;5.72;3.05;;;;;;;;;;10565869;28;20107;-73
2022/08/17 16:32:57;;;;;;;5.95;3.65;;;;;;;;;;10584368;28;20063;-73
2022/08/17 16:37:59;;;;;;;5.25;3.17;;;;;;;;;;10576821;28;20079;-73
2022/08/17 16:43:05;;;;;;;4.35;3.10;;;;;;;;;;10583195;28;20040;-73
2022/08/17 16:48:09;;;;;;;7.50;3.25;;;;;;;;;;10575116;28;20188;-71
2022/08/17 16:53:15;;;;;;;5.50;2.75;;;;;;;;;;10584497;28;20034;-72
2022/08/17 16:58:20;;;;;;;4.63;3.33;;;;;;;;;;10586070;28;20043;-72
2022/08/17 17:03:24;;;;;;;5.50;3.10;;;;;;;;;;10583552;28;20031;-73
2022/08/17 17:08:30;;;;;;;4.50;3.03;;;;;;;;;;10590816;27;20046;-73
2022/08/17 17:13:37;;;;;;;4.53;3.22;;;;;;;;;;10586370;27;20048;-73
2022/08/17 17:18:41;;;;;;;6.85;3.20;;;;;;;;;;10588212;27;20096;-72
2022/08/17 17:23:48;;;;;;;6.07;3.28;;;;;;;;;;10590097;27;20044;-74
2022/08/17 17:42:09;;;;;;;7.30;3.28;;;;;;;;;;10831351;22;20827;-73
2022/08/17 17:47:31;;;;;;;7.32;3.47;;;;;;;;;;10532841;28;20056;-73
2022/08/17 17:52:39;;;;;;;6.72;3.33;;;;;;;;;;10552401;28;20040;-73
2022/08/17 17:58:09;;;;;;;5.38;3.42;;;;;;;;;;10541548;28;20515;-73
2022/08/17 18:03:42;;;;;;;5.68;3.17;;;;;;;;;;10544899;28;20067;-73
2022/08/17 18:09:14;;;;;;;5.90;3.40;;;;;;;;;;10554804;28;20066;-72
2022/08/17 18:14:54;;;;;;;6.95;3.95;;;;;;;;;;10550779;28;20047;-76
2022/08/17 18:20:19;;;;;;;7.45;4.00;;;;;;;;;;10544035;28;20044;-73
2022/08/17 18:25:58;;;;;;;6.38;3.92;;;;;;;;;;10549728;28;20036;-73
2022/08/17 18:31:27;;;;;;;6.93;3.45;;;;;;;;;;10542958;28;20095;-73
2022/08/17 18:36:50;;;;;;;4.95;3.53;;;;;;;;;;10545967;28;20048;-73
2022/08/17 18:42:23;;;;;;;8.85;3.60;;;;;;;;;;10539761;28;20075;-72
2022/08/17 18:47:54;;;;;;;4.43;3.20;;;;;;;;;;10539216;28;20171;-73
2022/08/17 18:53:28;;;;;;;6.53;3.40;;;;;;;;;;10551344;28;20037;-73
2022/08/17 18:59:00;;;;;;;6.55;3.83;;;;;;;;;;10543706;28;20059;-72
2022/08/17 19:04:29;;;;;;;12.73;7.75;;;;;;;;;;10542326;28;20067;-72
2022/08/17 19:09:59;;;;;;;8.90;3.70;;;;;;;;;;10541938;28;20040;-72
2022/08/17 19:15:24;;;;;;;7.13;3.75;;;;;;;;;;10543624;28;20123;-73
2022/08/17 19:20:54;;;;;;;8.07;4.13;;;;;;;;;;10537714;28;20130;-73
2022/08/17 19:26:20;;;;;;;11.32;5.22;;;;;;;;;;10548709;28;20075;-73
2022/08/17 19:32:03;;;;;;;6.85;4.10;;;;;;;;;;10539917;28;20539;-72
2022/08/17 19:37:43;;;;;;;8.45;3.88;;;;;;;;;;10547574;27;20099;-72
2022/08/17 19:43:10;;;;;;;7.47;3.45;;;;;;;;;;10542953;28;20608;-72
2022/08/17 19:52:17;;;;;;;6.60;3.30;;;;;;;;;;10528725;27;20401;-73
2022/08/17 19:57:36;;;;;;;13.55;3.70;;;;;;;;;;10534477;28;20069;-73
2022/08/17 20:02:46;;;;;;;8.45;3.90;;;;;;;;;;10527165;28;20089;-73
2022/08/17 20:07:55;;;;;;;8.70;3.90;;;;;;;;;;10530396;28;20024;-72
2022/08/17 20:13:03;;;;;;;8.57;3.53;;;;;;;;;;10533064;28;20036;-73
2022/08/17 20:18:09;;;;;;;6.45;3.65;;;;;;;;;;10527275;28;20037;-72
2022/08/17 20:23:23;;;;;;;9.23;3.83;;;;;;;;;;10528643;28;20052;-73
2022/08/17 20:28:30;;;;;;;6.50;3.50;;;;;;;;;;10529229;28;20087;-74
2022/08/17 20:33:43;;;;;;;9.35;3.60;;;;;;;;;;10526403;28;20191;-73
2022/08/17 20:38:49;;;;;;;5.18;3.17;;;;;;;;;;10526273;28;21300;-73
2022/08/17 20:44:02;;;;;;;8.90;3.72;;;;;;;;;;10523767;28;20113;-73
2022/08/17 20:49:15;;;;;;;7.15;3.50;;;;;;;;;;10523737;28;20080;-73
2022/08/17 20:54:40;;;;;;;6.30;3.58;;;;;;;;;;10533753;28;20037;-72
2022/08/17 21:00:00;;;;;;;7.70;3.90;;;;;;;;;;10522703;28;20039;-72
2022/08/17 21:05:06;;;;;;;10.10;3.80;;;;;;;;;;10501179;28;20036;-72
2022/08/17 21:10:14;;;;;;;6.65;3.83;;;;;;;;;;10500507;28;20163;-72
2022/08/17 21:15:29;;;;;;;10.15;3.97;;;;;;;;;;10502146;28;20159;-74
2022/08/17 21:20:38;;;;;;;8.35;3.78;;;;;;;;;;10498000;28;20058;-72
2022/08/17 21:26:02;;;;;;;7.63;3.90;;;;;;;;;;10499086;28;20040;-73
2022/08/17 21:31:08;;;;;;;7.05;3.83;;;;;;;;;;10500723;28;20040;-73
2022/08/17 21:36:22;;;;;;;8.25;3.50;;;;;;;;;;10497091;28;20036;-73
2022/08/17 21:41:28;;;;;;;5.55;3.50;;;;;;;;;;10499693;28;20041;-73
2022/08/17 21:46:35;;;;;;;5.75;3.45;;;;;;;;;;10488344;28;20041;-72
2022/08/17 21:51:43;;;;;;;5.63;3.53;;;;;;;;;;10498193;28;20128;-72
2022/08/17 21:56:48;;;;;;;10.13;3.75;;;;;;;;;;10500529;28;20087;-72
2022/08/17 22:01:52;;;;;;;6.90;3.90;;;;;;;;;;10495968;28;20316;-72
2022/08/17 22:06:56;;;;;;;7.78;5.10;;;;;;;;;;10495781;28;20155;-72
2022/08/17 22:12:02;;;;;;;5.70;3.22;;;;;;;;;;10504944;28;20037;-72
2022/08/17 22:17:06;;;;;;;8.70;3.60;;;;;;;;;;10495069;28;20040;-72
2022/08/17 22:22:09;;;;;;;7.47;3.85;;;;;;;;;;10495407;28;20382;-72
2022/08/17 22:27:13;;;;;;;6.47;4.22;;;;;;;;;;10495923;28;20048;-73
2022/08/17 22:32:30;;;;;;;16.33;5.15;;;;;;;;;;10495311;28;20076;-72
2022/08/17 22:37:33;;;;;;;19.35;8.93;;;;;;;;;;10498237;28;20032;-72
2022/08/17 22:42:46;;;;;;;10.10;5.53;;;;;;;;;;10500458;28;20044;-72
2022/08/17 22:47:49;;;;;;;9.68;5.00;;;;;;;;;;10500199;28;20071;-73
2022/08/17 23:03:52;;;;;;;9.63;6.40;;;;;;;;;;10499498;28;20053;-72
2022/08/17 23:08:56;;;;;;;15.18;6.40;;;;;;;;;;10499687;28;20056;-73
2022/08/17 23:14:00;;;;;;;13.35;6.82;;;;;;;;;;10503045;28;20040;-72
2022/08/17 23:19:06;;;;;;;14.80;6.82;;;;;;;;;;10500785;28;20086;-72
2022/08/17 23:24:09;;;;;;;13.68;6.80;;;;;;;;;;10499079;28;20203;-72
2022/08/17 23:29:13;;;;;;;9.80;6.30;;;;;;;;;;10499639;28;20052;-72
2022/08/17 23:34:17;;;;;;;9.05;6.28;;;;;;;;;;10496704;28;20049;-71
2022/08/17 23:39:20;;;;;;;11.18;6.72;;;;;;;;;;10499933;28;20045;-72
2022/08/17 23:44:31;;;;;;;12.40;6.40;;;;;;;;;;10495488;28;20044;-72
2022/08/17 23:49:34;;;;;;;11.10;6.00;;;;;;;;;;10499918;28;20037;-72
2022/08/17 23:54:42;;;;;;;10.57;6.00;;;;;;;;;;10495568;28;20044;-72
2022/08/17 23:59:47;;;;;;;10.68;6.05;;;;;;;;;;10495380;28;20046;-72
